Flight Track Log - Related Links

Times and Time Zones

All times are in EDT time to prevent confusion due to time zone crossing. See the AAL1326 flight status page for this flight to view local times or setup timezone preferences in your user account.

Time Position Orientation Groundspeed Altitude Reporting Facility
EDT Latitude Longitude Course Direction KTS MPH feet Rate Location/Type
Sun 07:13:13 PM 41.9450 -87.9060 179° South 152 175 2,300  Level FlightAware ADS-B
Sun 07:13:28 PM 41.9340 -87.9070 184° South 166 191 2,800 1,867 Climbing FlightAware ADS-B
Sun 07:13:58 PM 41.9060 -87.9050 177° South 216 249 3,700 2,182 Climbing FlightAware ADS-B
Sun 07:14:23 PM 41.8810 -87.9040 178° South 230 265 4,800 2,291 Climbing FlightAware ADS-B
Sun 07:14:53 PM 41.8490 -87.9020 177° South 233 268 5,800 2,836 Climbing FlightAware ADS-B
Sun 07:15:18 PM 41.8200 -87.9000 177° South 235 270 7,400 3,600 Climbing FlightAware ADS-B
Sun 07:15:48 PM 41.7880 -87.8990 179° South 243 280 9,100 3,200 Climbing FlightAware ADS-B
Sun 07:16:03 PM 41.7720 -87.8980 177° South 249 287 9,800 2,400 Climbing FlightAware ADS-B
Sun 07:16:43 PM 41.7220 -87.8950 177° South 285 328 11,300 2,047 Climbing FlightAware ADS-B
Sun 07:17:28 PM 41.6630 -87.8920 178° South 323 372 12,700 2,612 Climbing FlightAware ADS-B
Sun 07:18:08 PM 41.5960 -87.8880 177° South 332 382 15,000 2,700 Climbing FlightAware ADS-B
Sun 07:18:48 PM 41.5430 -87.8850 178° South 351 404 16,300 2,259 Climbing FlightAware ADS-B
Sun 07:19:33 PM 41.4620 -87.8800 177° South 369 425 18,200 2,460 Climbing FlightAware ADS-B
Sun 07:20:28 PM 41.3640 -87.8820 181° South 381 438 20,400 2,337 Climbing FlightAware ADS-B
Sun 07:21:08 PM 41.2900 -87.8890 184° South 394 453 21,900 1,933 Climbing FlightAware ADS-B
Sun 07:21:58 PM 41.2070 -87.8920 182° South 409 471 23,300 1,980 Climbing FlightAware ADS-B
Sun 07:22:48 PM 41.1070 -87.8880 178° South 415 478 25,200 2,000 Climbing FlightAware ADS-B
Sun 07:23:28 PM 41.0250 -87.8860 179° South 425 489 26,300 1,553 Climbing FlightAware ADS-B
Sun 07:24:13 PM 40.9370 -87.8830 179° South 434 499 27,400 1,412 Climbing FlightAware ADS-B
Sun 07:24:53 PM 40.8570 -87.8810 179° South 442 509 28,300 1,412 Climbing FlightAware ADS-B
Sun 07:25:38 PM 40.7610 -87.8780 179° South 450 518 29,400 1,553 Climbing FlightAware ADS-B
Sun 07:26:18 PM 40.6830 -87.8750 178° South 446 513 30,500 1,800 Climbing FlightAware ADS-B
Sun 07:26:58 PM 40.6010 -87.8730 179° South 441 507 31,800 1,835 Climbing FlightAware ADS-B
Sun 07:27:43 PM 40.5060 -87.8700 179° South 437 503 33,100 1,575 Climbing FlightAware ADS-B
Sun 07:28:18 PM 40.4380 -87.8680 179° South 436 502 33,900 1,425 Climbing FlightAware ADS-B
Sun 07:29:03 PM 40.3470 -87.8650 179° South 434 499 35,000 1,624 Climbing FlightAware ADS-B
Sun 07:29:43 PM 40.2620 -87.8620 178° South 423 487 36,200 1,600 Climbing FlightAware ADS-B
Sun 07:30:33 PM 40.1740 -87.8580 178° South 412 474 37,400 1,425 Climbing FlightAware ADS-B
Sun 07:31:03 PM 40.1160 -87.8550 178° South 406 467 38,100 1,120 Climbing FlightAware ADS-B
Sun 07:31:48 PM 40.0380 -87.8520 178° South 400 460 38,800 568 Climbing FlightAware ADS-B
Sun 07:32:38 PM 39.9390 -87.8480 178° South 406 467 39,000 141 Climbing FlightAware ADS-B
Sun 07:33:13 PM 39.8760 -87.8450 178° South 406 467 39,000  Level FlightAware ADS-B
Sun 07:34:03 PM 39.7810 -87.8410 178° South 406 467 39,000  Level FlightAware ADS-B
Sun 07:34:43 PM 39.7020 -87.8380 178° South 407 468 39,000  Level FlightAware ADS-B
Sun 07:35:23 PM 39.6260 -87.8350 178° South 407 468 39,000  Level FlightAware ADS-B
Sun 07:36:08 PM 39.5380 -87.8310 178° South 407 468 39,000  Level FlightAware ADS-B
Sun 07:36:48 PM 39.4630 -87.8270 178° South 407 468 39,000  Level FlightAware ADS-B
Sun 07:37:28 PM 39.3920 -87.8240 178° South 407 468 39,000  Level FlightAware ADS-B
Sun 07:38:08 PM 39.3140 -87.8200 178° South 407 468 39,000  Level FlightAware ADS-B
Sun 07:38:53 PM 39.2300 -87.8170 178° South 408 470 39,000  Level FlightAware ADS-B
Sun 07:39:38 PM 39.1460 -87.8140 178° South 407 468 39,000  Level FlightAware ADS-B
Sun 07:40:18 PM 39.0710 -87.8100 178° South 408 470 39,000  Level FlightAware ADS-B
Sun 07:40:58 PM 38.9920 -87.8070 178° South 410 472 39,000  Level FlightAware ADS-B
Sun 07:41:43 PM 38.9090 -87.8040 178° South 411 473 39,000  Level FlightAware ADS-B
Sun 07:42:23 PM 38.8310 -87.8000 178° South 412 474 39,000  Level FlightAware ADS-B
Sun 07:43:08 PM 38.7450 -87.7970 178° South 412 474 39,000  Level FlightAware ADS-B
Sun 07:43:48 PM 38.6690 -87.7930 178° South 409 471 39,000  Level FlightAware ADS-B
Sun 07:44:28 PM 38.5940 -87.7750 169° South 422 486 39,000  Level FlightAware ADS-B
Sun 07:45:13 PM 38.5120 -87.7370 160° South 424 488 39,000  Level FlightAware ADS-B
Sun 07:45:53 PM 38.4400 -87.7040 160° South 422 486 39,000  Level FlightAware ADS-B
Sun 07:46:38 PM 38.3540 -87.6650 160° South 422 486 39,000  Level FlightAware ADS-B
Sun 07:47:18 PM 38.2800 -87.6290 159° South 427 491 39,000  Level FlightAware ADS-B
Sun 07:47:58 PM 38.2120 -87.5790 150° Southeast 432 497 39,000  Level FlightAware ADS-B
Sun 07:48:43 PM 38.1360 -87.5230 150° Southeast 432 497 39,000  Level FlightAware ADS-B
Sun 07:49:23 PM 38.0670 -87.4720 150° Southeast 432 497 39,000  Level FlightAware ADS-B
Sun 07:50:03 PM 37.9980 -87.4210 150° Southeast 431 496 39,000  Level FlightAware ADS-B
Sun 07:50:48 PM 37.9210 -87.3660 151° Southeast 429 494 39,000  Level FlightAware ADS-B
Sun 07:51:28 PM 37.8530 -87.3160 150° Southeast 425 489 39,000  Level FlightAware ADS-B
Sun 07:52:13 PM 37.7750 -87.2600 150° Southeast 424 488 39,000  Level FlightAware ADS-B
Sun 07:52:53 PM 37.7070 -87.2110 150° Southeast 421 484 39,000  Level FlightAware ADS-B
Sun 07:53:33 PM 37.6390 -87.1610 150° Southeast 420 483 39,000  Level FlightAware ADS-B
Sun 07:54:18 PM 37.5610 -87.1060 151° Southeast 424 488 39,000  Level FlightAware ADS-B
Sun 07:54:58 PM 37.4930 -87.0570 150° Southeast 423 487 39,000  Level FlightAware ADS-B
Sun 07:55:38 PM 37.4250 -87.0070 150° Southeast 425 489 39,000  Level FlightAware ADS-B
Sun 07:56:23 PM 37.3490 -86.9540 151° Southeast 424 488 39,000  Level FlightAware ADS-B
Sun 07:57:03 PM 37.2810 -86.9050 150° Southeast 425 489 39,000  Level FlightAware ADS-B
Sun 07:57:48 PM 37.2040 -86.8500 150° Southeast 425 489 39,000  Level FlightAware ADS-B
Sun 07:58:28 PM 37.1350 -86.8010 150° Southeast 426 490 39,000  Level FlightAware ADS-B
Sun 07:59:13 PM 37.0580 -86.7470 151° Southeast 426 490 39,000  Level FlightAware ADS-B
Sun 07:59:53 PM 36.9910 -86.6990 150° Southeast 427 491 39,000  Level FlightAware ADS-B
Sun 08:00:32 PM 36.9195 -86.6484 150° Southeast 428 493 39,000  Level FlightAware ADS-B
Sun 08:01:02 PM 36.8679 -86.6121 151° Southeast 427 491 39,000  Level FlightAware ADS-B
Sun 08:01:32 PM 36.8158 -86.5754 151° Southeast 426 490 39,000  Level FlightAware ADS-B
Sun 08:02:02 PM 36.7643 -86.5392 151° Southeast 426 490 39,000  Level FlightAware ADS-B
Sun 08:02:32 PM 36.7128 -86.5031 151° Southeast 424 488 39,000  Level FlightAware ADS-B
Sun 08:03:23 PM 36.6320 -86.4460 150° Southeast 422 486 39,000  Level FlightAware ADS-B
Sun 08:04:03 PM 36.5620 -86.3980 151° Southeast 420 483 39,000  Level FlightAware ADS-B
Sun 08:04:38 PM 36.4985 -86.3533 150° Southeast 419 482 39,000  Level FlightAware ADS-B
Sun 08:05:16 PM 36.4355 -86.3095 151° Southeast 417 480 39,000  Level FlightAware ADS-B
Sun 08:05:46 PM 36.3847 -86.2743 151° Southeast 416 479 39,000  Level FlightAware ADS-B
Sun 08:06:16 PM 36.3337 -86.2391 151° Southeast 417 480 39,000  Level FlightAware ADS-B
Sun 08:06:53 PM 36.2760 -86.1990 151° Southeast 418 481 39,000  Level FlightAware ADS-B
Sun 08:07:18 PM 36.2303 -86.1675 151° Southeast 417 480 39,000  Level FlightAware ADS-B
Sun 08:07:48 PM 36.1787 -86.1318 151° Southeast 423 487 39,000  Level FlightAware ADS-B
Sun 08:08:18 PM 36.1265 -86.0958 151° Southeast 423 487 39,000  Level FlightAware ADS-B
Sun 08:08:49 PM 36.0747 -86.0601 151° Southeast 423 487 39,000  Level FlightAware ADS-B
Sun 08:09:19 PM 36.0223 -86.0242 151° Southeast 423 487 39,000  Level FlightAware ADS-B
Sun 08:09:53 PM 35.9649 -85.9848 151° Southeast 424 488 39,000  Level FlightAware ADS-B
Sun 08:10:27 PM 35.9054 -85.9441 151° Southeast 424 488 39,000  Level FlightAware ADS-B
Sun 08:10:58 PM 35.8534 -85.9086 151° Southeast 423 487 39,000  Level FlightAware ADS-B
Sun 08:11:28 PM 35.8012 -85.8730 151° Southeast 421 484 39,000  Level FlightAware ADS-B
Sun 08:11:59 PM 35.7487 -85.8372 151° Southeast 421 484 39,000  Level FlightAware ADS-B
Sun 08:12:35 PM 35.6876 -85.7956 151° Southeast 421 484 39,000  Level FlightAware ADS-B
Sun 08:13:06 PM 35.6357 -85.7603 151° Southeast 421 484 39,000  Level FlightAware ADS-B
Sun 08:13:36 PM 35.5840 -85.7251 151° Southeast 419 482 39,000  Level FlightAware ADS-B
Sun 08:14:06 PM 35.5330 -85.6904 151° Southeast 413 475 39,000  Level FlightAware ADS-B
Sun 08:14:37 PM 35.4824 -85.6563 151° Southeast 411 473 39,000  Level FlightAware ADS-B
Sun 08:15:07 PM 35.4315 -85.6221 151° Southeast 411 473 39,000  Level FlightAware ADS-B
Sun 08:15:42 PM 35.3738 -85.5832 151° Southeast 414 476 39,000  Level FlightAware ADS-B
Sun 08:16:28 PM 35.3020 -85.5350 151° Southeast 418 481 39,000  Level FlightAware ADS-B
Sun 08:16:43 PM 35.2697 -85.5131 151° Southeast 418 481 39,000  Level FlightAware ADS-B
Sun 08:17:00 PM 35.2418 -85.4967 154° Southeast 409 471 39,000  Level FlightAware ADS-B
Sun 08:17:08 PM 35.2271 -85.4899 159° South 405 466 39,000  Level FlightAware ADS-B
Sun 08:17:23 PM 35.2012 -85.4804 163° South 396 456 39,000  Level FlightAware ADS-B
Sun 08:17:53 PM 35.1467 -85.4664 168° South 392 451 39,000  Level FlightAware ADS-B
Sun 08:18:38 PM 35.0750 -85.4490 169° South 390 449 39,000  Level FlightAware ADS-B
Sun 08:18:45 PM 35.0541 -85.4435 168° South 392 451 39,000  Level FlightAware ADS-B
Sun 08:19:18 PM 34.9975 -85.4292 168° South 388 447 39,000  Level FlightAware ADS-B
Sun 08:19:49 PM 34.9433 -85.4156 168° South 386 444 39,000  Level FlightAware ADS-B
Sun 08:20:19 PM 34.8907 -85.4026 169° South 385 443 39,000  Level FlightAware ADS-B
Sun 08:20:49 PM 34.8381 -85.3893 168° South 385 443 39,000  Level FlightAware ADS-B
Sun 08:21:19 PM 34.7855 -85.3762 168° South 384 442 39,000  Level FlightAware ADS-B
Sun 08:21:52 PM 34.7272 -85.3617 168° South 384 442 39,000  Level FlightAware ADS-B
Sun 08:22:23 PM 34.6733 -85.3484 169° South 385 443 39,000  Level FlightAware ADS-B
Sun 08:22:55 PM 34.6182 -85.3348 169° South 387 445 39,000  Level FlightAware ADS-B
Sun 08:23:28 PM 34.5700 -85.3230 169° South 382 440 39,000  Level FlightAware ADS-B
Sun 08:24:08 PM 34.5030 -85.3060 168° South 392 451 39,000  Level FlightAware ADS-B
Sun 08:24:53 PM 34.4180 -85.2850 168° South 397 457 39,000  Level FlightAware ADS-B
Sun 08:25:33 PM 34.3400 -85.2660 169° South 395 455 39,000  Level FlightAware ADS-B
Sun 08:26:08 PM 34.2760 -85.2500 168° South 396 456 39,000  Level FlightAware ADS-B
Sun 08:26:58 PM 34.1880 -85.2290 169° South 396 456 39,000  Level FlightAware ADS-B
Sun 08:27:40 PM 34.1027 -85.2079 168° South 403 464 39,000  Level FlightAware ADS-B
Sun 08:28:25 PM 34.0194 -85.1874 168° South 403 464 39,000  Level FlightAware ADS-B
Sun 08:28:56 PM 33.9634 -85.1736 168° South 401 461 39,000  Level FlightAware ADS-B
Sun 08:29:27 PM 33.9077 -85.1601 169° South 399 459 39,000  Level FlightAware ADS-B
Sun 08:29:58 PM 33.8524 -85.1468 169° South 398 458 39,000  Level FlightAware ADS-B
Sun 08:30:28 PM 33.8040 -85.1350 169° South 396 456 39,000  Level FlightAware ADS-B
Sun 08:31:28 PM 33.7010 -85.1100 169° South 397 457 39,000  Level FlightAware ADS-B
Sun 08:31:58 PM 33.6380 -85.0950 169° South 393 452 39,000  Level FlightAware ADS-B
Sun 08:32:48 PM 33.5470 -85.0730 169° South 394 453 39,000  Level FlightAware ADS-B
Sun 08:33:33 PM 33.4700 -85.0540 168° South 396 456 39,000  Level FlightAware ADS-B
Sun 08:34:13 PM 33.4010 -85.0380 169° South 393 452 39,000  Level FlightAware ADS-B
Sun 08:34:58 PM 33.3200 -85.0180 168° South 391 450 39,000  Level FlightAware ADS-B
Sun 08:35:33 PM 33.2560 -85.0030 169° South 390 449 39,000  Level FlightAware ADS-B
Sun 08:35:44 PM 33.2297 -84.9963 168° South 391 450 39,000  Level FlightAware ADS-B
Sun 08:36:18 PM 33.1720 -84.9830 169° South 393 452 39,000  Level FlightAware ADS-B
Sun 08:37:01 PM 33.0911 -84.9630 168° South 394 453 39,000  Level FlightAware ADS-B
Sun 08:37:43 PM 33.0260 -84.9470 168° South 397 457 39,000  Level FlightAware ADS-B
Sun 08:38:18 PM 32.9610 -84.9320 169° South 408 470 39,000  Level FlightAware ADS-B
Sun 08:39:18 PM 32.8480 -84.9060 169° South 411 473 39,000  Level FlightAware ADS-B
Sun 08:39:53 PM 32.7810 -84.8890 168° South 412 474 39,000  Level FlightAware ADS-B
Sun 08:40:38 PM 32.7030 -84.8700 168° South 407 468 39,000  Level FlightAware ADS-B
Sun 08:41:23 PM 32.6100 -84.8490 169° South 408 470 39,000  Level FlightAware ADS-B
Sun 08:42:03 PM 32.5340 -84.8310 169° South 411 473 39,000  Level FlightAware ADS-B
Sun 08:43:03 PM 32.4200 -84.8040 169° South 423 487 39,000  Level FlightAware ADS-B
Sun 08:43:43 PM 32.3570 -84.7880 168° South 423 487 39,000  Level FlightAware ADS-B
Sun 08:44:38 PM 32.2450 -84.7630 169° South 423 487 39,000  Level FlightAware ADS-B
Sun 08:45:23 PM 32.1660 -84.7430 168° South 423 487 39,000  Level FlightAware ADS-B
Sun 08:46:03 PM 32.1010 -84.7270 168° South 423 487 39,000  Level FlightAware ADS-B
Sun 08:46:38 PM 32.0100 -84.7080 170° South 427 491 39,000  Level FlightAware ADS-B
Sun 08:47:58 PM 31.8630 -84.6730 169° South 428 493 39,000  Level FlightAware ADS-B
Sun 08:48:38 PM 31.7970 -84.6560 168° South 428 493 39,000  Level FlightAware ADS-B
Sun 08:49:18 PM 31.7310 -84.6400 168° South 428 493 39,000  Level FlightAware ADS-B
Sun 08:49:58 PM 31.6650 -84.6230 168° South 428 493 39,000  Level FlightAware ADS-B
Sun 08:50:38 PM 31.5990 -84.6070 168° South 428 493 39,000  Level FlightAware ADS-B
Sun 08:51:28 PM 31.5170 -84.5860 168° South 428 493 39,000  Level FlightAware ADS-B
Sun 08:52:08 PM 31.4510 -84.5700 168° South 428 493 39,000  Level FlightAware ADS-B
Sun 08:52:48 PM 31.3850 -84.5530 168° South 428 493 39,000  Level FlightAware ADS-B
Sun 08:53:38 PM 31.3030 -84.5330 168° South 428 493 39,000  Level FlightAware ADS-B
Sun 08:54:18 PM 31.2370 -84.5170 168° South 428 493 39,000  Level FlightAware ADS-B
Sun 08:54:58 PM 31.1710 -84.5000 168° South 428 493 39,000  Level FlightAware ADS-B
Sun 08:55:43 PM 30.9850 -84.3810 151° Southeast 39,000  Level FlightAware ADS-B
Sun 08:56:23 PM 30.9000 -84.3270 151° Southeast 451 519 39,000  Level FlightAware ADS-B
Sun 08:57:08 PM 30.8170 -84.2740 151° Southeast 450 518 39,000  Level FlightAware ADS-B
Sun 08:57:48 PM 30.7370 -84.2240 152° Southeast 454 522 39,000  Level FlightAware ADS-B
Sun 08:58:28 PM 30.6630 -84.1760 151° Southeast 454 522 39,000  Level FlightAware ADS-B
Sun 08:59:13 PM 30.5860 -84.1280 152° Southeast 454 522 39,000  Level FlightAware ADS-B
Sun 08:59:53 PM 30.5100 -84.0790 151° Southeast 455 524 39,000  Level FlightAware ADS-B
Sun 09:00:33 PM 30.4340 -84.0320 152° Southeast 455 524 39,000  Level FlightAware ADS-B
Sun 09:01:18 PM 30.3540 -83.9810 151° Southeast 455 524 39,000  Level FlightAware ADS-B
Sun 09:01:58 PM 30.2800 -83.9350 152° Southeast 456 525 39,000  Level FlightAware ADS-B
Sun 09:03:08 PM 30.2170 -83.8940 151° Southeast 459 528 39,000  Level FlightAware ADS-B
Sun 09:03:53 PM 30.0570 -83.7940 152° Southeast 455 524 39,000  Level FlightAware ADS-B
Sun 09:04:48 PM 29.9540 -83.7300 152° Southeast 457 526 39,000  Level FlightAware ADS-B
Sun 09:05:28 PM 29.8780 -83.6830 152° Southeast 459 528 39,000  Level FlightAware ADS-B
Sun 09:06:13 PM 29.7940 -83.6310 152° Southeast 463 533 39,000  Level FlightAware ADS-B
Sun 09:06:43 PM 29.7340 -83.5930 151° Southeast 472 543 39,000  Level FlightAware ADS-B
Sun 09:07:33 PM 29.6400 -83.5350 152° Southeast 474 545 39,000  Level FlightAware ADS-B
Sun 09:08:18 PM 29.5510 -83.4800 152° Southeast 476 548 39,000  Level FlightAware ADS-B
Sun 09:08:58 PM 29.4720 -83.4310 152° Southeast 478 550 39,000  Level FlightAware ADS-B
Sun 09:09:43 PM 29.3850 -83.3770 152° Southeast 473 544 39,000  Level FlightAware ADS-B
Sun 09:10:18 PM 29.3150 -83.3340 152° Southeast 474 545 39,000  Level FlightAware ADS-B
Sun 09:11:08 PM 29.2190 -83.2750 152° Southeast 476 548 39,000  Level FlightAware ADS-B
Sun 09:12:03 PM 29.1130 -83.2100 152° Southeast 472 543 39,000  Level FlightAware ADS-B
Sun 09:12:43 PM 29.0350 -83.1620 152° Southeast 461 531 39,000  Level FlightAware ADS-B
Sun 09:13:28 PM 28.9500 -83.1100 152° Southeast 460 529 39,000  Level FlightAware ADS-B
Sun 09:13:58 PM 28.8920 -83.0750 152° Southeast 459 528 39,000  Level FlightAware ADS-B
Sun 09:15:33 PM 28.7180 -82.9690 152° Southeast 458 527 39,000  Level FlightAware ADS-B
Sun 09:16:28 PM 28.6140 -82.9060 152° Southeast 456 525 39,000  Level FlightAware ADS-B
Sun 09:17:53 PM 28.4530 -82.8090 152° Southeast 455 524 39,000  Level FlightAware ADS-B
Sun 09:19:03 PM 28.3200 -82.7290 152° Southeast 455 524 39,000  Level FlightAware ADS-B
Sun 09:20:13 PM 28.1890 -82.6500 152° Southeast 457 526 39,000  Level FlightAware ADS-B
Sun 09:21:23 PM 28.0540 -82.5690 152° Southeast 458 527 39,000  Level FlightAware ADS-B
Sun 09:22:33 PM 27.9200 -82.4980 155° Southeast 439 505 39,000 -86 Level FlightAware ADS-B
Sun 09:23:43 PM 27.7840 -82.4480 162° South 439 505 38,800 -557 Descending FlightAware ADS-B
Sun 09:24:53 PM 27.6440 -82.3960 162° South 453 521 37,700 -982 Descending FlightAware ADS-B
Sun 09:25:33 PM 27.5540 -82.3630 162° South 456 525 37,000 -1,050 Descending FlightAware ADS-B
Sun 09:26:13 PM 27.4740 -82.3340 162° South 454 522 36,300 -988 Descending FlightAware ADS-B
Sun 09:26:58 PM 27.3860 -82.3010 162° South 454 522 35,600 -918 Descending FlightAware ADS-B
Sun 09:27:38 PM 27.3060 -82.2720 162° South 454 522 35,000 -918 Descending FlightAware ADS-B
Sun 09:28:23 PM 27.2160 -82.2400 162° South 466 536 34,300 -988 Descending FlightAware ADS-B
Sun 09:29:03 PM 27.1300 -82.2080 162° South 471 542 33,600 -900 Descending FlightAware ADS-B
Sun 09:29:43 PM 27.0610 -82.1830 162° South 472 543 33,100 -1,624 Descending FlightAware ADS-B
Sun 09:30:28 PM 26.9550 -82.1450 162° South 470 541 31,300 -2,471 Descending FlightAware ADS-B
Sun 09:31:08 PM 26.8770 -82.1160 162° South 463 533 29,600 -2,400 Descending FlightAware ADS-B
Sun 09:31:53 PM 26.7970 -82.0500 144° Southeast 487 560 27,900 -2,329 Descending FlightAware ADS-B
Sun 09:32:33 PM 26.7450 -81.9680 125° Southeast 484 557 26,300 -2,329 Descending FlightAware ADS-B
Sun 09:33:18 PM 26.6880 -81.8790 126° Southeast 465 535 24,600 -2,259 Descending FlightAware ADS-B
Sun 09:33:58 PM 26.6390 -81.8000 125° Southeast 454 522 23,100 -2,250 Descending FlightAware ADS-B
Sun 09:34:38 PM 26.5900 -81.7240 126° Southeast 448 516 21,600 -2,175 Descending FlightAware ADS-B
Sun 09:35:18 PM 26.5430 -81.6500 125° Southeast 429 494 20,200 -2,118 Descending FlightAware ADS-B
Sun 09:36:03 PM 26.4910 -81.5690 126° Southeast 415 478 18,600 -2,067 Descending FlightAware ADS-B
Sun 09:36:48 PM 26.4420 -81.4920 125° Southeast 394 453 17,100 -2,047 Descending FlightAware ADS-B
Sun 09:37:28 PM 26.4000 -81.4260 125° Southeast 385 443 15,700 -2,025 Descending FlightAware ADS-B
Sun 09:38:08 PM 26.3600 -81.3640 126° Southeast 368 423 14,400 -1,976 Descending FlightAware ADS-B
Sun 09:38:53 PM 26.3150 -81.2940 126° Southeast 362 417 12,900 -1,976 Descending FlightAware ADS-B
Sun 09:39:33 PM 26.2760 -81.2330 125° Southeast 348 400 11,600 -1,725 Descending FlightAware ADS-B
Sun 09:40:13 PM 26.2390 -81.1750 125° Southeast 337 388 10,600 -988 Descending FlightAware ADS-B
Sun 09:40:58 PM 26.1990 -81.1140 126° Southeast 303 349 10,200 -640 Descending FlightAware ADS-B
Sun 09:41:28 PM 26.1760 -81.0780 125° Southeast 281 323 9,800 -1,309 Descending FlightAware ADS-B
Sun 09:41:53 PM 26.1560 -81.0470 126° Southeast 286 329 9,000 -1,527 Descending FlightAware ADS-B
Sun 09:42:23 PM 26.1330 -81.0120 126° Southeast 282 325 8,400 -1,091 Descending FlightAware ADS-B
Sun 09:42:48 PM 26.1140 -80.9820 125° Southeast 279 321 8,000 -600 Descending FlightAware ADS-B
Sun 09:43:03 PM 26.1060 -80.9610 113° Southeast 281 323 8,000  Level FlightAware ADS-B
Sun 09:43:33 PM 26.1020 -80.9190 96° East 282 325 8,000  Level FlightAware ADS-B
Sun 09:43:58 PM 26.1000 -80.8820 93° East 280 322 8,000 -327 Level FlightAware ADS-B
Sun 09:44:28 PM 26.0990 -80.8390 91° East 281 323 7,700 -800 Descending FlightAware ADS-B
Sun 09:44:58 PM 26.0970 -80.7960 93° East 282 325 7,200 -1,091 Descending FlightAware ADS-B
Sun 09:45:23 PM 26.0960 -80.7600 92° East 279 321 6,700 -1,309 Descending FlightAware ADS-B
Sun 09:45:53 PM 26.0940 -80.7160 93° East 273 314 6,000 -1,200 Descending FlightAware ADS-B
Sun 09:46:18 PM 26.0930 -80.6830 92° East 268 308 5,600 -982 Descending FlightAware ADS-B
Sun 09:46:48 PM 26.0920 -80.6410 92° East 264 304 5,100 -600 Descending FlightAware ADS-B
Sun 09:47:18 PM 26.0900 -80.6010 93° East 262 302 5,000 -109 Descending FlightAware ADS-B
Sun 09:47:43 PM 26.0890 -80.5680 92° East 260 299 5,000  Level FlightAware ADS-B
Sun 09:48:13 PM 26.0870 -80.5280 93° East 242 278 5,000 -218 Level FlightAware ADS-B
Sun 09:48:38 PM 26.0860 -80.4990 92° East 227 261 4,800 -982 Descending FlightAware ADS-B
Sun 09:49:08 PM 26.0850 -80.4630 92° East 226 260 4,100 -1,300 Descending FlightAware ADS-B
Sun 09:49:38 PM 26.0840 -80.4260 92° East 217 250 3,500 -1,286 Descending FlightAware ADS-B
Sun 09:50:18 PM 26.0820 -80.3820 93° East 211 243 2,600 -818 Descending FlightAware ADS-B
Sun 09:51:28 PM 26.0790 -80.3150 93° East 172 198 2,000 -471 Descending FlightAware ADS-B
Sun 09:52:38 PM 26.0770 -80.2560 92° East 152 175 1,500 -600 Descending FlightAware ADS-B
Sun 09:54:18 PM 26.0770 -80.1840 90° East 145 167 300 -600 Descending FlightAware ADS-B
Sun 09:54:48 PM 26.0770 -80.1630 90° East 145 167 200 -200 Descending FlightAware ADS-B

Login

Don't have an account? Register now (free) for customized features, flight alerts, and more!